Time;durP1;ratioP1;P1;durP2;ratioP2;P2;SDS_P1;SDS_P2;PMS_P1;PMS_P2;Temp;Humidity;BMP_temperature;BMP_pressure;BME280_temperature;BME280_humidity;BME280_pressure;Samples;Min_cycle;Max_cycle;Signal;HPM_P1;HPM_P2
2021/09/11 00:00:04;;;;;;;11.23;4.97;;;;;;;;;;6125418;23;19994;-70
2021/09/11 00:02:29;;;;;;;10.00;4.50;;;;;;;;;;6099615;23;20009;-70
2021/09/11 00:04:55;;;;;;;16.65;5.13;;;;;;;;;;6125868;23;20053;-70
2021/09/11 00:07:21;;;;;;;7.65;4.40;;;;;;;;;;6125935;23;20005;-70
2021/09/11 00:09:46;;;;;;;13.95;4.78;;;;;;;;;;6099939;23;20054;-72
2021/09/11 00:12:12;;;;;;;9.45;5.22;;;;;;;;;;6125514;23;19994;-71
2021/09/11 00:14:37;;;;;;;11.75;5.18;;;;;;;;;;6125548;23;20072;-70
2021/09/11 00:17:03;;;;;;;14.10;4.78;;;;;;;;;;6099809;23;20014;-70
2021/09/11 00:19:28;;;;;;;6.55;3.85;;;;;;;;;;6100141;23;20420;-70
2021/09/11 00:21:54;;;;;;;16.55;4.88;;;;;;;;;;6125403;23;20475;-70
2021/09/11 00:24:19;;;;;;;7.85;4.15;;;;;;;;;;6125640;23;20005;-70
2021/09/11 00:26:44;;;;;;;18.83;4.50;;;;;;;;;;6125497;23;19998;-70
2021/09/11 00:29:10;;;;;;;10.50;4.60;;;;;;;;;;6125688;23;20007;-70
2021/09/11 00:31:35;;;;;;;13.68;4.65;;;;;;;;;;6125721;23;19994;-70
2021/09/11 00:34:01;;;;;;;9.95;4.43;;;;;;;;;;6127543;23;20025;-70
2021/09/11 00:36:27;;;;;;;9.63;4.95;;;;;;;;;;6127512;23;20006;-69
2021/09/11 00:38:52;;;;;;;9.13;4.68;;;;;;;;;;6127572;23;19997;-70
2021/09/11 00:41:17;;;;;;;13.23;5.07;;;;;;;;;;6101630;23;20012;-70
2021/09/11 00:43:45;;;;;;;11.23;4.68;;;;;;;;;;6127193;23;19998;-70
2021/09/11 00:46:10;;;;;;;9.05;4.43;;;;;;;;;;6127281;23;21451;-70
2021/09/11 00:48:35;;;;;;;14.10;5.05;;;;;;;;;;6127441;23;20025;-70
2021/09/11 00:51:01;;;;;;;12.65;4.88;;;;;;;;;;6128098;23;20001;-70
2021/09/11 00:53:26;;;;;;;8.38;4.38;;;;;;;;;;6127378;23;20001;-70
2021/09/11 00:55:51;;;;;;;10.02;4.65;;;;;;;;;;6127015;23;19997;-70
2021/09/11 00:58:17;;;;;;;12.52;5.35;;;;;;;;;;6127336;23;20005;-70
2021/09/11 01:00:42;;;;;;;14.30;4.78;;;;;;;;;;6101663;23;20009;-70
2021/09/11 01:03:07;;;;;;;10.70;4.78;;;;;;;;;;6127505;23;20501;-70
2021/09/11 01:05:33;;;;;;;10.02;5.47;;;;;;;;;;6127189;23;20002;-70
2021/09/11 01:07:58;;;;;;;9.05;5.10;;;;;;;;;;6101089;23;20308;-70
2021/09/11 01:10:24;;;;;;;22.60;4.88;;;;;;;;;;6101045;23;20022;-70
2021/09/11 01:12:49;;;;;;;10.73;5.22;;;;;;;;;;6126986;23;20394;-70
2021/09/11 01:15:16;;;;;;;12.93;4.90;;;;;;;;;;6127166;23;20006;-70
2021/09/11 01:17:42;;;;;;;10.52;5.30;;;;;;;;;;6126949;23;20064;-69
2021/09/11 01:20:09;;;;;;;12.38;5.55;;;;;;;;;;6126889;23;19994;-70
2021/09/11 01:22:34;;;;;;;11.95;5.47;;;;;;;;;;6126916;23;20005;-70
2021/09/11 01:25:04;;;;;;;9.05;5.05;;;;;;;;;;6100986;23;19994;-69
2021/09/11 01:27:31;;;;;;;14.75;6.32;;;;;;;;;;6100944;23;20002;-70
2021/09/11 01:29:57;;;;;;;10.07;5.45;;;;;;;;;;6126695;23;19998;-70
2021/09/11 01:32:23;;;;;;;8.43;5.22;;;;;;;;;;6127023;23;19998;-70
2021/09/11 01:34:49;;;;;;;9.38;4.88;;;;;;;;;;6127024;23;20494;-70
2021/09/11 01:37:14;;;;;;;10.20;5.30;;;;;;;;;;6101267;23;20064;-70
2021/09/11 01:39:40;;;;;;;12.15;5.60;;;;;;;;;;6126734;23;20412;-70
2021/09/11 01:42:06;;;;;;;16.02;4.97;;;;;;;;;;6126588;23;19998;-70
2021/09/11 01:44:31;;;;;;;10.90;4.50;;;;;;;;;;6126390;23;20005;-70
2021/09/11 01:46:56;;;;;;;14.40;4.75;;;;;;;;;;6126983;23;19998;-71
2021/09/11 01:49:22;;;;;;;15.88;5.38;;;;;;;;;;6126858;23;20002;-71
2021/09/11 01:51:47;;;;;;;10.40;5.57;;;;;;;;;;6100715;23;20033;-70
2021/09/11 01:54:13;;;;;;;14.60;6.50;;;;;;;;;;6126580;23;20029;-71
2021/09/11 01:56:38;;;;;;;17.40;6.20;;;;;;;;;;6126624;23;20002;-70
2021/09/11 01:59:04;;;;;;;17.35;6.95;;;;;;;;;;6126645;23;20005;-70
2021/09/11 02:01:29;;;;;;;11.63;5.50;;;;;;;;;;6126726;23;20450;-70
2021/09/11 02:03:54;;;;;;;8.63;4.88;;;;;;;;;;6126356;23;20010;-71
2021/09/11 02:06:21;;;;;;;13.63;6.03;;;;;;;;;;6126545;23;20001;-71
2021/09/11 02:08:47;;;;;;;11.70;5.85;;;;;;;;;;6126510;23;19994;-70
2021/09/11 02:11:12;;;;;;;13.02;5.63;;;;;;;;;;6126717;23;20005;-70
2021/09/11 02:13:37;;;;;;;12.90;5.70;;;;;;;;;;6126373;23;20044;-70
2021/09/11 02:16:03;;;;;;;16.15;5.95;;;;;;;;;;6126147;23;20010;-70
2021/09/11 02:18:28;;;;;;;16.85;6.72;;;;;;;;;;6126556;23;20020;-70
2021/09/11 02:20:55;;;;;;;16.92;5.97;;;;;;;;;;6126622;23;20462;-70
2021/09/11 02:23:20;;;;;;;10.63;6.30;;;;;;;;;;6126388;23;20005;-70
2021/09/11 02:25:46;;;;;;;18.35;6.20;;;;;;;;;;6126630;23;19994;-70
2021/09/11 02:28:11;;;;;;;12.05;6.20;;;;;;;;;;6100622;23;20129;-71
2021/09/11 02:30:37;;;;;;;10.55;5.97;;;;;;;;;;6126385;23;20420;-70
2021/09/11 02:33:02;;;;;;;10.75;5.97;;;;;;;;;;6126600;23;19997;-70
2021/09/11 02:35:27;;;;;;;11.10;5.60;;;;;;;;;;6126468;23;19994;-70
2021/09/11 02:37:53;;;;;;;9.93;5.75;;;;;;;;;;6126108;23;20328;-70
2021/09/11 02:40:18;;;;;;;12.95;6.30;;;;;;;;;;6126470;23;20077;-70
2021/09/11 02:42:43;;;;;;;11.32;5.88;;;;;;;;;;6126224;23;20005;-70
2021/09/11 02:45:09;;;;;;;14.52;5.43;;;;;;;;;;6126271;23;19994;-70
2021/09/11 02:47:34;;;;;;;11.23;6.38;;;;;;;;;;6126127;23;19998;-70
2021/09/11 02:50:00;;;;;;;14.48;6.18;;;;;;;;;;6126107;23;20033;-70
2021/09/11 02:52:25;;;;;;;11.98;6.00;;;;;;;;;;6126145;23;20332;-71
2021/09/11 02:54:51;;;;;;;9.30;6.07;;;;;;;;;;6100489;23;20052;-71
2021/09/11 02:57:16;;;;;;;9.30;6.22;;;;;;;;;;6126168;23;20010;-71
2021/09/11 02:59:41;;;;;;;10.85;6.20;;;;;;;;;;6100130;23;20048;-71
2021/09/11 03:02:07;;;;;;;13.48;6.53;;;;;;;;;;6099737;23;20077;-70
2021/09/11 03:04:32;;;;;;;11.52;5.40;;;;;;;;;;6126300;23;19994;-71
2021/09/11 03:06:58;;;;;;;10.65;6.05;;;;;;;;;;6126360;23;19998;-71
2021/09/11 03:09:23;;;;;;;15.38;7.38;;;;;;;;;;6125865;23;20021;-71
2021/09/11 03:11:48;;;;;;;9.30;5.70;;;;;;;;;;6126074;23;20420;-71
2021/09/11 03:14:14;;;;;;;11.15;6.25;;;;;;;;;;6126258;23;20069;-71
2021/09/11 03:16:39;;;;;;;10.40;5.85;;;;;;;;;;6125933;23;20527;-71
2021/09/11 03:19:04;;;;;;;13.18;6.47;;;;;;;;;;6126156;23;20080;-71
2021/09/11 03:21:30;;;;;;;9.50;5.88;;;;;;;;;;6126585;23;20446;-71
2021/09/11 03:23:55;;;;;;;13.05;5.78;;;;;;;;;;6125803;23;20001;-71
2021/09/11 03:26:20;;;;;;;8.40;5.60;;;;;;;;;;6099980;23;20439;-71
2021/09/11 03:28:46;;;;;;;15.43;7.07;;;;;;;;;;6099992;23;20009;-71
2021/09/11 03:31:11;;;;;;;11.57;5.68;;;;;;;;;;6125948;23;19998;-70
2021/09/11 03:33:37;;;;;;;14.05;6.43;;;;;;;;;;6125940;23;20431;-70
2021/09/11 03:36:02;;;;;;;16.08;6.85;;;;;;;;;;6075825;23;20009;-70
2021/09/11 03:38:27;;;;;;;13.52;6.90;;;;;;;;;;6125932;23;20005;-71
2021/09/11 03:40:53;;;;;;;12.77;7.10;;;;;;;;;;6125818;23;20388;-71
2021/09/11 03:43:18;;;;;;;11.02;6.50;;;;;;;;;;6125686;23;19998;-71
2021/09/11 03:45:43;;;;;;;10.23;6.40;;;;;;;;;;6125757;23;19998;-71
2021/09/11 03:48:09;;;;;;;11.85;6.50;;;;;;;;;;6125900;23;20057;-71
2021/09/11 03:50:34;;;;;;;10.88;6.97;;;;;;;;;;6125984;23;20420;-71
2021/09/11 03:53:00;;;;;;;11.30;6.07;;;;;;;;;;6100216;23;19994;-70
2021/09/11 03:55:25;;;;;;;11.48;6.50;;;;;;;;;;6125545;23;20013;-71
2021/09/11 03:57:50;;;;;;;10.15;6.63;;;;;;;;;;6125876;23;20012;-71
2021/09/11 04:00:16;;;;;;;13.02;6.75;;;;;;;;;;6099754;23;20024;-71
2021/09/11 04:03:04;;;;;;;18.95;6.45;;;;;;;;;;6124850;23;22670;-71
2021/09/11 04:05:33;;;;;;;14.60;6.68;;;;;;;;;;6080585;23;20372;-71
2021/09/11 04:07:58;;;;;;;27.38;7.85;;;;;;;;;;6126490;23;20002;-71
2021/09/11 04:10:24;;;;;;;21.38;7.13;;;;;;;;;;6101757;23;20005;-71
2021/09/11 04:12:49;;;;;;;19.90;6.90;;;;;;;;;;6127330;23;20367;-70
2021/09/11 04:15:14;;;;;;;19.40;7.25;;;;;;;;;;6127797;23;20002;-71
2021/09/11 04:17:40;;;;;;;14.32;7.68;;;;;;;;;;6127317;23;20103;-70
2021/09/11 04:20:05;;;;;;;24.88;7.80;;;;;;;;;;6127315;23;20072;-71
2021/09/11 04:22:31;;;;;;;26.88;7.97;;;;;;;;;;6127593;23;19994;-71
2021/09/11 04:24:56;;;;;;;19.35;7.32;;;;;;;;;;6127583;23;19994;-71
2021/09/11 04:27:22;;;;;;;18.63;7.15;;;;;;;;;;6127334;23;20030;-71
2021/09/11 04:29:47;;;;;;;21.85;8.75;;;;;;;;;;6127276;23;21131;-71
2021/09/11 04:32:12;;;;;;;17.05;8.15;;;;;;;;;;6127138;23;20076;-70
2021/09/11 04:34:38;;;;;;;17.00;7.13;;;;;;;;;;6127394;23;20001;-71
2021/09/11 04:37:03;;;;;;;14.13;6.10;;;;;;;;;;6127242;23;20383;-70
2021/09/11 04:39:29;;;;;;;16.90;7.38;;;;;;;;;;6101367;23;19997;-71
2021/09/11 04:41:54;;;;;;;14.63;7.38;;;;;;;;;;6126932;23;20431;-71
2021/09/11 04:44:20;;;;;;;9.48;6.38;;;;;;;;;;6127276;23;20435;-71
2021/09/11 04:46:45;;;;;;;12.38;6.60;;;;;;;;;;6127287;23;20002;-71
2021/09/11 04:49:10;;;;;;;9.52;6.28;;;;;;;;;;6101485;23;20001;-72
2021/09/11 04:51:36;;;;;;;19.77;7.30;;;;;;;;;;6127174;23;20068;-71
2021/09/11 04:54:01;;;;;;;12.43;7.07;;;;;;;;;;6126991;23;19998;-71
2021/09/11 04:56:26;;;;;;;13.45;7.22;;;;;;;;;;6127064;23;20042;-71
2021/09/11 04:58:52;;;;;;;9.25;6.45;;;;;;;;;;6126813;23;20101;-71
2021/09/11 05:01:17;;;;;;;11.68;6.75;;;;;;;;;;6127233;23;19998;-71
2021/09/11 05:03:43;;;;;;;11.25;7.07;;;;;;;;;;6126887;23;20351;-71
2021/09/11 05:06:08;;;;;;;15.13;6.88;;;;;;;;;;6126920;23;20021;-71
2021/09/11 05:08:33;;;;;;;14.10;7.90;;;;;;;;;;6127300;23;20002;-71
2021/09/11 05:11:00;;;;;;;25.38;7.68;;;;;;;;;;6127092;23;20025;-70
2021/09/11 05:13:26;;;;;;;13.95;6.80;;;;;;;;;;6127109;23;20041;-71
2021/09/11 05:15:51;;;;;;;11.43;6.30;;;;;;;;;;6126821;23;20013;-71
2021/09/11 05:18:16;;;;;;;10.77;6.78;;;;;;;;;;6127229;23;20022;-71
2021/09/11 05:20:42;;;;;;;19.27;7.93;;;;;;;;;;6126787;23;20001;-71
2021/09/11 05:23:07;;;;;;;12.77;6.70;;;;;;;;;;6127164;23;20062;-72
2021/09/11 05:25:33;;;;;;;13.90;6.72;;;;;;;;;;6127408;23;20002;-71
2021/09/11 05:27:58;;;;;;;11.93;6.30;;;;;;;;;;6126920;23;20069;-71
2021/09/11 05:30:23;;;;;;;11.65;6.82;;;;;;;;;;6126985;23;20002;-71
2021/09/11 05:32:49;;;;;;;11.05;6.13;;;;;;;;;;6100934;23;20086;-71
2021/09/11 05:35:14;;;;;;;9.70;6.03;;;;;;;;;;6127131;23;19998;-71
2021/09/11 05:37:40;;;;;;;10.68;6.78;;;;;;;;;;6100843;23;20328;-71
2021/09/11 05:40:05;;;;;;;12.77;6.38;;;;;;;;;;6100910;23;19998;-71
2021/09/11 05:42:31;;;;;;;11.18;5.82;;;;;;;;;;6126917;23;20555;-71
2021/09/11 05:44:59;;;;;;;13.43;6.50;;;;;;;;;;6100767;23;20078;-71
2021/09/11 05:47:24;;;;;;;13.05;6.65;;;;;;;;;;6126681;23;19994;-71
2021/09/11 05:49:50;;;;;;;12.05;7.00;;;;;;;;;;6101250;23;20443;-71
2021/09/11 05:52:15;;;;;;;9.55;6.25;;;;;;;;;;6100924;23;20009;-71
2021/09/11 05:54:40;;;;;;;12.38;6.00;;;;;;;;;;6126790;23;20012;-71
2021/09/11 05:57:06;;;;;;;20.35;7.10;;;;;;;;;;6101219;23;20010;-71
2021/09/11 05:59:31;;;;;;;14.20;6.18;;;;;;;;;;6126540;23;20462;-70
2021/09/11 06:01:57;;;;;;;19.65;6.65;;;;;;;;;;6126259;23;19994;-70
2021/09/11 06:04:22;;;;;;;14.63;6.55;;;;;;;;;;6100984;23;20018;-71
2021/09/11 06:06:47;;;;;;;13.68;6.63;;;;;;;;;;6126657;23;20002;-71
2021/09/11 06:09:13;;;;;;;11.30;5.95;;;;;;;;;;6126525;23;19998;-71
2021/09/11 06:11:38;;;;;;;13.25;6.25;;;;;;;;;;6100468;23;20002;-71
2021/09/11 06:14:03;;;;;;;16.90;6.57;;;;;;;;;;6126332;23;20470;-71
2021/09/11 06:16:29;;;;;;;19.42;7.35;;;;;;;;;;6126483;23;20075;-71
2021/09/11 06:18:54;;;;;;;15.40;6.88;;;;;;;;;;6126243;23;20075;-71
2021/09/11 06:21:20;;;;;;;16.33;6.53;;;;;;;;;;6126416;23;20001;-71
2021/09/11 06:23:45;;;;;;;15.70;6.72;;;;;;;;;;6126512;23;19998;-71
2021/09/11 06:26:10;;;;;;;14.93;6.80;;;;;;;;;;6126248;23;20212;-71
2021/09/11 06:28:36;;;;;;;11.77;5.55;;;;;;;;;;6126360;23;20025;-71
2021/09/11 06:31:01;;;;;;;34.40;8.20;;;;;;;;;;6126027;23;20024;-70
2021/09/11 06:33:27;;;;;;;26.17;7.43;;;;;;;;;;6126403;23;19998;-70
2021/09/11 06:35:52;;;;;;;17.52;6.75;;;;;;;;;;6125991;23;20002;-70
2021/09/11 06:38:17;;;;;;;10.98;5.90;;;;;;;;;;6100845;23;20391;-71
2021/09/11 06:40:43;;;;;;;10.60;6.03;;;;;;;;;;6126313;23;20002;-71
2021/09/11 06:43:08;;;;;;;13.30;6.85;;;;;;;;;;6126492;23;20056;-71
2021/09/11 06:45:34;;;;;;;11.23;6.03;;;;;;;;;;6126125;23;20028;-70
2021/09/11 06:47:59;;;;;;;15.65;6.32;;;;;;;;;;6126050;23;20021;-71
2021/09/11 06:50:24;;;;;;;22.42;5.97;;;;;;;;;;6099793;23;20006;-70
2021/09/11 06:52:50;;;;;;;23.88;6.55;;;;;;;;;;6126368;23;20002;-71
2021/09/11 06:55:15;;;;;;;24.48;5.47;;;;;;;;;;6126348;23;19994;-71
2021/09/11 06:57:41;;;;;;;23.73;7.32;;;;;;;;;;6125969;23;20063;-71
2021/09/11 07:00:08;;;;;;;19.70;6.50;;;;;;;;;;6100009;23;20092;-71
2021/09/11 07:02:33;;;;;;;17.17;6.20;;;;;;;;;;6099815;23;20004;-70
2021/09/11 07:04:59;;;;;;;10.77;5.72;;;;;;;;;;6126083;23;20037;-70
2021/09/11 07:07:24;;;;;;;14.85;5.97;;;;;;;;;;6126000;23;20005;-71
2021/09/11 07:09:49;;;;;;;15.30;6.22;;;;;;;;;;6125834;23;20002;-70
2021/09/11 07:12:16;;;;;;;16.80;5.75;;;;;;;;;;6125916;23;19997;-70
2021/09/11 07:14:41;;;;;;;13.98;6.22;;;;;;;;;;6125857;23;20431;-70
2021/09/11 07:17:07;;;;;;;17.13;5.32;;;;;;;;;;6126125;23;20033;-70
2021/09/11 07:19:32;;;;;;;20.73;6.07;;;;;;;;;;6100035;23;20339;-70
2021/09/11 07:21:58;;;;;;;17.95;6.63;;;;;;;;;;6125732;23;20368;-70
2021/09/11 07:24:23;;;;;;;17.33;5.35;;;;;;;;;;6100072;23;20009;-70
2021/09/11 07:26:48;;;;;;;14.88;5.88;;;;;;;;;;6126071;23;20061;-70
2021/09/11 07:29:15;;;;;;;14.77;6.28;;;;;;;;;;6099973;23;19998;-70
2021/09/11 07:31:40;;;;;;;15.43;5.78;;;;;;;;;;6099851;23;20001;-70
2021/09/11 07:34:06;;;;;;;13.75;5.22;;;;;;;;;;6125644;23;20475;-70
2021/09/11 07:36:31;;;;;;;8.27;5.40;;;;;;;;;;6125779;23;20005;-70
2021/09/11 07:38:57;;;;;;;14.15;4.97;;;;;;;;;;6126214;23;20390;-71
2021/09/11 07:41:22;;;;;;;8.52;4.45;;;;;;;;;;6099757;23;20002;-71
2021/09/11 07:43:48;;;;;;;9.52;3.85;;;;;;;;;;6125882;23;19998;-71
2021/09/11 07:46:13;;;;;;;13.20;6.03;;;;;;;;;;6125553;23;20073;-71
2021/09/11 07:48:39;;;;;;;9.68;5.22;;;;;;;;;;6126114;23;20052;-71
2021/09/11 07:51:04;;;;;;;11.57;5.50;;;;;;;;;;6125797;23;19998;-71
2021/09/11 07:53:29;;;;;;;10.00;5.07;;;;;;;;;;6125895;23;20029;-71
2021/09/11 07:55:55;;;;;;;7.72;4.90;;;;;;;;;;6099737;23;20009;-71
2021/09/11 07:58:20;;;;;;;15.95;4.75;;;;;;;;;;6126017;23;20331;-71
2021/09/11 08:00:46;;;;;;;11.10;5.53;;;;;;;;;;6125771;23;20008;-71
2021/09/11 08:03:11;;;;;;;12.45;5.15;;;;;;;;;;6125437;23;20440;-71
2021/09/11 08:05:37;;;;;;;8.45;4.95;;;;;;;;;;6099880;23;20436;-71
2021/09/11 08:08:02;;;;;;;10.15;4.72;;;;;;;;;;6125341;23;20464;-71
2021/09/11 08:10:28;;;;;;;15.05;5.00;;;;;;;;;;6125674;23;20050;-71
2021/09/11 08:12:53;;;;;;;12.63;4.65;;;;;;;;;;6125495;23;19995;-71
2021/09/11 08:15:19;;;;;;;8.68;4.43;;;;;;;;;;6125605;23;20046;-71
2021/09/11 08:17:44;;;;;;;9.45;4.35;;;;;;;;;;6125435;23;20006;-71
2021/09/11 08:20:11;;;;;;;7.53;4.45;;;;;;;;;;6125371;23;20032;-71
2021/09/11 08:22:36;;;;;;;9.43;4.53;;;;;;;;;;6125576;23;19998;-71
2021/09/11 08:25:02;;;;;;;10.93;4.45;;;;;;;;;;6125890;23;20332;-71
2021/09/11 08:27:27;;;;;;;11.13;3.78;;;;;;;;;;6125553;23;20085;-72
2021/09/11 08:29:52;;;;;;;6.50;3.92;;;;;;;;;;6125164;23;19994;-71
2021/09/11 08:32:18;;;;;;;14.85;3.78;;;;;;;;;;6125631;23;20006;-71
2021/09/11 08:34:44;;;;;;;8.50;3.65;;;;;;;;;;6125466;23;20028;-72
2021/09/11 08:37:10;;;;;;;7.30;3.97;;;;;;;;;;6125302;23;20093;-72
2021/09/11 08:39:35;;;;;;;12.55;3.88;;;;;;;;;;6125759;23;20002;-72
2021/09/11 08:42:01;;;;;;;9.50;3.30;;;;;;;;;;6125214;23;19998;-72
2021/09/11 08:44:27;;;;;;;6.78;3.97;;;;;;;;;;6125478;23;20001;-72
2021/09/11 08:46:52;;;;;;;7.43;3.85;;;;;;;;;;6125409;23;20005;-71
2021/09/11 08:49:18;;;;;;;17.27;4.85;;;;;;;;;;6125436;23;20084;-72
2021/09/11 08:51:43;;;;;;;12.43;4.55;;;;;;;;;;6125460;23;20009;-72
2021/09/11 08:54:09;;;;;;;5.80;4.10;;;;;;;;;;6126390;23;19998;-72
2021/09/11 08:56:38;;;;;;;6.47;3.60;;;;;;;;;;6127149;23;20006;-72
2021/09/11 08:59:08;;;;;;;7.50;3.88;;;;;;;;;;6101693;23;20084;-71
2021/09/11 09:01:33;;;;;;;9.25;3.42;;;;;;;;;;6127021;23;20009;-72
2021/09/11 09:03:59;;;;;;;10.02;4.32;;;;;;;;;;6100863;23;20404;-71
2021/09/11 09:06:27;;;;;;;11.18;3.80;;;;;;;;;;6127319;23;19998;-72
2021/09/11 09:09:12;;;;;;;12.23;4.05;;;;;;;;;;6101116;23;19998;-72
2021/09/11 09:11:38;;;;;;;6.68;4.28;;;;;;;;;;6126792;23;19997;-71
2021/09/11 09:14:07;;;;;;;13.32;4.00;;;;;;;;;;6126781;23;19998;-72
2021/09/11 09:16:35;;;;;;;7.75;3.55;;;;;;;;;;6100875;23;20014;-72
2021/09/11 09:19:03;;;;;;;11.13;3.92;;;;;;;;;;6101092;23;20093;-71
2021/09/11 09:21:31;;;;;;;7.10;4.25;;;;;;;;;;6101208;23;20064;-71
2021/09/11 09:23:58;;;;;;;7.97;3.53;;;;;;;;;;6126550;23;20028;-72
2021/09/11 09:26:24;;;;;;;8.73;3.58;;;;;;;;;;6126998;23;20029;-71
2021/09/11 09:28:59;;;;;;;7.03;3.42;;;;;;;;;;6126855;23;20021;-72
2021/09/11 09:31:24;;;;;;;7.38;3.85;;;;;;;;;;6127201;23;20466;-72
2021/09/11 09:33:49;;;;;;;17.48;3.80;;;;;;;;;;6126895;23;20089;-71
2021/09/11 09:36:16;;;;;;;13.40;3.25;;;;;;;;;;6126567;23;20006;-72
2021/09/11 09:38:44;;;;;;;7.38;3.40;;;;;;;;;;6127078;23;20033;-72
2021/09/11 09:41:10;;;;;;;6.15;3.72;;;;;;;;;;6126870;23;19994;-72
2021/09/11 09:43:42;;;;;;;11.63;2.83;;;;;;;;;;6126865;23;20024;-72
2021/09/11 09:46:09;;;;;;;7.43;3.00;;;;;;;;;;6071091;23;20095;-72
2021/09/11 09:48:35;;;;;;;7.20;3.38;;;;;;;;;;6120668;23;20005;-72
2021/09/11 09:51:02;;;;;;;5.00;3.45;;;;;;;;;;6126850;23;19998;-72
2021/09/11 09:53:28;;;;;;;26.13;3.70;;;;;;;;;;6127130;23;19998;-73
2021/09/11 09:55:53;;;;;;;13.10;3.83;;;;;;;;;;6126385;23;20060;-72
2021/09/11 09:58:19;;;;;;;4.80;2.70;;;;;;;;;;6101622;23;20077;-73
2021/09/11 10:00:45;;;;;;;9.48;3.35;;;;;;;;;;6126648;23;20077;-72
2021/09/11 10:03:10;;;;;;;5.78;2.88;;;;;;;;;;6126599;23;20044;-73
2021/09/11 10:05:36;;;;;;;3.65;2.38;;;;;;;;;;6100429;23;20009;-73
2021/09/11 10:08:06;;;;;;;2.60;2.40;;;;;;;;;;6126540;23;20367;-72
2021/09/11 10:10:32;;;;;;;12.27;2.70;;;;;;;;;;6100509;23;20432;-72
2021/09/11 10:13:05;;;;;;;5.85;2.40;;;;;;;;;;6100831;23;19998;-72
2021/09/11 10:15:35;;;;;;;6.50;3.20;;;;;;;;;;6126569;23;20045;-72
2021/09/11 10:18:01;;;;;;;8.95;2.80;;;;;;;;;;6077142;23;20006;-71
2021/09/11 10:20:27;;;;;;;8.18;3.03;;;;;;;;;;6094604;23;19998;-72
2021/09/11 10:23:02;;;;;;;5.38;2.50;;;;;;;;;;6124932;23;20037;-71
2021/09/11 10:25:46;;;;;;;7.15;2.55;;;;;;;;;;6101027;23;19998;-72
2021/09/11 10:28:13;;;;;;;7.43;3.00;;;;;;;;;;6126107;23;20000;-73
2021/09/11 10:30:58;;;;;;;12.07;3.08;;;;;;;;;;6126456;23;20008;-72
2021/09/11 10:33:42;;;;;;;7.03;2.50;;;;;;;;;;6094394;23;20006;-72
2021/09/11 10:36:12;;;;;;;6.55;2.90;;;;;;;;;;6125979;23;20432;-72
2021/09/11 10:38:39;;;;;;;6.45;2.90;;;;;;;;;;6070529;23;20629;-72
2021/09/11 10:41:10;;;;;;;11.70;3.10;;;;;;;;;;6121304;23;20022;-73
2021/09/11 10:43:36;;;;;;;3.55;2.63;;;;;;;;;;6126288;23;20056;-73
2021/09/11 10:46:09;;;;;;;7.80;3.08;;;;;;;;;;6099931;23;20084;-73
2021/09/11 10:48:45;;;;;;;6.30;3.28;;;;;;;;;;6126245;23;20439;-72
2021/09/11 10:51:12;;;;;;;3.35;2.70;;;;;;;;;;6126691;23;20009;-71
2021/09/11 10:53:37;;;;;;;4.50;2.40;;;;;;;;;;6126239;23;19994;-72
2021/09/11 10:56:21;;;;;;;9.40;2.65;;;;;;;;;;6125864;23;20006;-71
2021/09/11 10:59:06;;;;;;;6.75;2.97;;;;;;;;;;6126063;23;20096;-72
2021/09/11 11:01:50;;;;;;;3.75;2.67;;;;;;;;;;6070197;23;20018;-72
2021/09/11 11:04:21;;;;;;;7.05;2.85;;;;;;;;;;6120785;23;20068;-72
2021/09/11 11:06:47;;;;;;;8.48;3.05;;;;;;;;;;6125947;23;19998;-71
2021/09/11 11:09:14;;;;;;;3.63;2.22;;;;;;;;;;6126034;23;20482;-72
2021/09/11 11:11:41;;;;;;;7.43;2.70;;;;;;;;;;6125987;23;19994;-72
2021/09/11 11:14:06;;;;;;;8.57;3.17;;;;;;;;;;6125791;23;20428;-71
2021/09/11 11:16:50;;;;;;;5.53;2.55;;;;;;;;;;6100218;23;20033;-71
2021/09/11 11:19:20;;;;;;;11.00;2.75;;;;;;;;;;6125894;23;20001;-70
2021/09/11 11:21:52;;;;;;;4.85;3.08;;;;;;;;;;6125840;23;20136;-71
2021/09/11 11:24:17;;;;;;;5.18;3.08;;;;;;;;;;6126071;23;20002;-71
2021/09/11 11:26:43;;;;;;;2.97;2.35;;;;;;;;;;6125997;23;20029;-72
2021/09/11 11:29:10;;;;;;;7.60;2.65;;;;;;;;;;6099996;23;20033;-71
2021/09/11 11:31:42;;;;;;;5.30;2.60;;;;;;;;;;6099815;23;20006;-71
2021/09/11 11:34:07;;;;;;;4.65;2.50;;;;;;;;;;6099903;23;20053;-71
2021/09/11 11:36:32;;;;;;;6.00;2.60;;;;;;;;;;6125695;23;20010;-71
2021/09/11 11:39:16;;;;;;;5.63;2.75;;;;;;;;;;6100640;23;20005;-71
2021/09/11 11:41:42;;;;;;;5.43;2.83;;;;;;;;;;6125848;23;20002;-71
2021/09/11 11:44:07;;;;;;;5.05;2.88;;;;;;;;;;6099532;23;20439;-71
2021/09/11 11:46:33;;;;;;;7.25;3.38;;;;;;;;;;6125681;23;20001;-71
2021/09/11 11:48:58;;;;;;;6.25;2.55;;;;;;;;;;6125853;23;19998;-71
2021/09/11 11:51:24;;;;;;;5.35;2.65;;;;;;;;;;6125952;23;20004;-71
2021/09/11 11:53:50;;;;;;;4.28;2.95;;;;;;;;;;6125635;23;20006;-71
2021/09/11 11:56:15;;;;;;;6.63;2.83;;;;;;;;;;6125732;23;20002;-72
2021/09/11 11:58:41;;;;;;;5.10;2.83;;;;;;;;;;6125901;23;20006;-72
2021/09/11 12:01:06;;;;;;;5.45;2.72;;;;;;;;;;6125658;23;20029;-71
2021/09/11 12:03:44;;;;;;;14.30;3.10;;;;;;;;;;6125605;23;20018;-72
2021/09/11 12:06:25;;;;;;;10.68;2.80;;;;;;;;;;6099977;23;20446;-72
2021/09/11 12:08:50;;;;;;;6.18;3.03;;;;;;;;;;6125872;23;20400;-71
2021/09/11 12:11:20;;;;;;;7.97;2.67;;;;;;;;;;6125801;23;20022;-72
2021/09/11 12:13:47;;;;;;;5.05;2.70;;;;;;;;;;6094134;23;20046;-71
2021/09/11 12:16:13;;;;;;;9.82;3.05;;;;;;;;;;6118865;23;20002;-71
2021/09/11 12:18:39;;;;;;;8.50;2.78;;;;;;;;;;6099871;23;20492;-71
2021/09/11 12:21:09;;;;;;;9.25;2.90;;;;;;;;;;6125535;23;20034;-71
2021/09/11 12:23:37;;;;;;;6.60;2.50;;;;;;;;;;6125804;23;19998;-71
2021/09/11 12:26:05;;;;;;;5.55;2.72;;;;;;;;;;6125492;23;20061;-71
2021/09/11 12:28:49;;;;;;;5.82;3.10;;;;;;;;;;6095066;23;19995;-71
2021/09/11 12:31:23;;;;;;;4.57;2.60;;;;;;;;;;6124781;23;20001;-71
2021/09/11 12:33:50;;;;;;;11.35;3.83;;;;;;;;;;6127641;23;19998;-70
2021/09/11 12:36:18;;;;;;;6.15;2.85;;;;;;;;;;6095762;23;20135;-71
2021/09/11 12:38:43;;;;;;;4.20;2.38;;;;;;;;;;6120971;23;19998;-71
2021/09/11 12:41:09;;;;;;;7.72;2.97;;;;;;;;;;6127585;23;20026;-71
2021/09/11 12:43:34;;;;;;;8.45;2.63;;;;;;;;;;6127396;23;20009;-71
2021/09/11 12:45:59;;;;;;;6.32;2.95;;;;;;;;;;6127263;23;20309;-70
2021/09/11 12:48:25;;;;;;;4.28;2.90;;;;;;;;;;6127495;23;20005;-71
2021/09/11 12:50:50;;;;;;;6.68;3.05;;;;;;;;;;6127281;23;19998;-71
2021/09/11 12:53:15;;;;;;;6.05;2.40;;;;;;;;;;6127086;23;19998;-71
2021/09/11 12:55:41;;;;;;;4.75;2.80;;;;;;;;;;6127263;23;20009;-71
2021/09/11 12:58:06;;;;;;;5.90;2.50;;;;;;;;;;6127110;23;19998;-71
2021/09/11 13:00:32;;;;;;;5.38;2.78;;;;;;;;;;6127442;23;20069;-72
2021/09/11 13:02:57;;;;;;;5.30;2.80;;;;;;;;;;6126829;23;20790;-71
2021/09/11 13:05:23;;;;;;;5.55;2.72;;;;;;;;;;6127435;23;20380;-72
2021/09/11 13:07:48;;;;;;;4.32;2.42;;;;;;;;;;6127262;23;20383;-72
2021/09/11 13:10:13;;;;;;;4.57;2.45;;;;;;;;;;6101217;23;20009;-72
2021/09/11 13:12:39;;;;;;;3.03;2.65;;;;;;;;;;6127215;23;20443;-71
2021/09/11 13:15:05;;;;;;;5.25;2.72;;;;;;;;;;6101072;23;20078;-71
2021/09/11 13:17:31;;;;;;;3.47;2.53;;;;;;;;;;6101148;23;20060;-71
2021/09/11 13:19:56;;;;;;;6.63;2.65;;;;;;;;;;6101111;23;20006;-71
2021/09/11 13:22:22;;;;;;;5.95;2.60;;;;;;;;;;6127216;23;20386;-71
2021/09/11 13:24:48;;;;;;;6.07;2.50;;;;;;;;;;6127118;23;19994;-71
2021/09/11 13:27:13;;;;;;;7.05;2.50;;;;;;;;;;6126975;23;19998;-71
2021/09/11 13:29:39;;;;;;;3.28;2.50;;;;;;;;;;6127083;23;19998;-71
2021/09/11 13:32:04;;;;;;;4.15;2.25;;;;;;;;;;6100651;23;20444;-71
2021/09/11 13:34:30;;;;;;;8.65;2.63;;;;;;;;;;6126751;23;20002;-71
2021/09/11 13:36:56;;;;;;;3.42;2.92;;;;;;;;;;6126980;23;20014;-71
2021/09/11 13:39:21;;;;;;;3.50;2.38;;;;;;;;;;6126707;23;20002;-71
2021/09/11 13:41:47;;;;;;;3.47;2.38;;;;;;;;;;6100976;23;20440;-71
2021/09/11 13:44:12;;;;;;;5.55;2.53;;;;;;;;;;6126727;23;20005;-71
2021/09/11 13:46:39;;;;;;;7.25;2.60;;;;;;;;;;6100957;23;20080;-71
2021/09/11 13:49:04;;;;;;;16.83;2.75;;;;;;;;;;6101097;23;20327;-71
2021/09/11 13:51:29;;;;;;;6.70;2.90;;;;;;;;;;6126965;23;20025;-71
2021/09/11 13:53:55;;;;;;;6.63;2.72;;;;;;;;;;6126524;23;20005;-70
2021/09/11 13:56:20;;;;;;;7.57;3.00;;;;;;;;;;6126816;23;20010;-70
2021/09/11 13:58:46;;;;;;;5.07;2.50;;;;;;;;;;6126785;23;20498;-70
2021/09/11 14:01:11;;;;;;;8.70;2.67;;;;;;;;;;6101043;23;20084;-71
2021/09/11 14:03:36;;;;;;;5.28;2.55;;;;;;;;;;6126478;23;20436;-70
2021/09/11 14:06:03;;;;;;;11.40;2.92;;;;;;;;;;6126539;23;20022;-71
2021/09/11 14:08:28;;;;;;;7.20;2.70;;;;;;;;;;6126840;23;19998;-71
2021/09/11 14:10:54;;;;;;;17.80;3.80;;;;;;;;;;6100560;23;20006;-70
2021/09/11 14:13:20;;;;;;;7.93;2.65;;;;;;;;;;6126877;23;19994;-70
2021/09/11 14:15:46;;;;;;;3.55;2.55;;;;;;;;;;6126730;23;20005;-70
2021/09/11 14:18:12;;;;;;;5.70;2.90;;;;;;;;;;6126518;23;20045;-70
2021/09/11 14:20:37;;;;;;;5.78;2.90;;;;;;;;;;6126418;23;19998;-70
2021/09/11 14:23:03;;;;;;;8.98;2.85;;;;;;;;;;6126993;23;20028;-70
2021/09/11 14:25:28;;;;;;;5.35;2.92;;;;;;;;;;6126714;23;20301;-70
2021/09/11 14:27:53;;;;;;;3.83;2.85;;;;;;;;;;6126428;23;19994;-70
2021/09/11 14:30:19;;;;;;;5.85;2.72;;;;;;;;;;6100648;23;19998;-70